Time;durP1;ratioP1;P1;durP2;ratioP2;P2;SDS_P1;SDS_P2;PMS_P1;PMS_P2;Temp;Humidity;BMP_temperature;BMP_pressure;BME280_temperature;BME280_humidity;BME280_pressure;Samples;Min_cycle;Max_cycle;Signal;HPM_P1;HPM_P2
2023/12/30 00:01:35;;;;;;;7.95;0.98;;;6.30;99.90;;;;;;5112501;27;20398;-90
2023/12/30 00:04:00;;;;;;;7.93;0.80;;;6.30;99.90;;;;;;5112332;27;20434;-89
2023/12/30 00:06:26;;;;;;;9.75;0.73;;;6.20;99.90;;;;;;5111694;27;20402;-89
2023/12/30 00:08:51;;;;;;;10.90;0.80;;;6.20;99.90;;;;;;5113221;27;20430;-89
2023/12/30 00:11:17;;;;;;;10.23;1.23;;;6.20;99.90;;;;;;5111112;27;20496;-88
2023/12/30 00:13:43;;;;;;;7.60;0.90;;;6.30;99.90;;;;;;5112530;27;20403;-89
2023/12/30 00:16:10;;;;;;;8.50;1.20;;;6.10;99.90;;;;;;5129920;27;20401;-94
2023/12/30 00:18:36;;;;;;;13.60;1.20;;;6.10;99.90;;;;;;5133294;27;20438;-90
2023/12/30 00:21:02;;;;;;;9.68;0.75;;;6.10;99.90;;;;;;5131801;27;20393;-89
2023/12/30 00:23:28;;;;;;;10.95;1.00;;;6.10;99.90;;;;;;5144896;27;20411;-89
2023/12/30 00:25:54;;;;;;;8.70;0.70;;;6.10;99.90;;;;;;5112144;27;20524;-91
2023/12/30 00:28:21;;;;;;;10.82;1.30;;;6.20;99.90;;;;;;5110200;27;20399;-88
2023/12/30 00:30:47;;;;;;;10.50;0.80;;;6.10;99.90;;;;;;5112550;27;20433;-91
2023/12/30 00:33:13;;;;;;;9.68;1.00;;;6.10;99.90;;;;;;5127392;27;20387;-88
2023/12/30 00:35:38;;;;;;;7.93;0.60;;;6.10;99.90;;;;;;5112225;27;20416;-90
2023/12/30 00:38:04;;;;;;;9.07;0.82;;;6.10;99.90;;;;;;5110731;27;20406;-90
2023/12/30 00:40:30;;;;;;;11.25;1.05;;;6.10;99.90;;;;;;5111784;27;20928;-89
2023/12/30 00:42:55;;;;;;;8.02;0.75;;;6.10;99.90;;;;;;5111672;27;20406;-92
2023/12/30 00:45:21;;;;;;;8.40;0.90;;;6.30;99.90;;;;;;5109552;27;20410;-89
2023/12/30 00:47:47;;;;;;;10.07;1.08;;;6.10;99.90;;;;;;5112105;27;20874;-90
2023/12/30 00:50:13;;;;;;;9.48;1.00;;;6.10;99.90;;;;;;5110540;27;20769;-91
2023/12/30 00:52:38;;;;;;;14.13;1.50;;;6.10;99.90;;;;;;5112070;27;21085;-91
2023/12/30 00:55:04;;;;;;;8.25;0.70;;;6.10;99.90;;;;;;5109742;27;20481;-89
2023/12/30 00:57:30;;;;;;;8.40;1.00;;;6.20;99.90;;;;;;5128993;27;20431;-91
2023/12/30 00:59:56;;;;;;;10.73;0.90;;;6.10;99.90;;;;;;5110900;27;20402;-89
2023/12/30 01:02:21;;;;;;;9.97;0.90;;;6.10;99.90;;;;;;5110758;27;20840;-92
2023/12/30 01:04:47;;;;;;;8.73;0.90;;;6.20;99.90;;;;;;5111665;27;20422;-90
2023/12/30 01:07:13;;;;;;;11.45;0.73;;;6.10;99.90;;;;;;5109866;27;20489;-89
2023/12/30 01:09:39;;;;;;;7.18;0.80;;;6.20;99.90;;;;;;5129178;27;20977;-90
2023/12/30 01:12:05;;;;;;;8.43;0.50;;;6.20;99.90;;;;;;5109204;27;20410;-92
2023/12/30 01:14:31;;;;;;;8.10;0.80;;;6.10;99.90;;;;;;5111535;27;20477;-87
2023/12/30 01:16:56;;;;;;;10.90;1.02;;;6.50;99.90;;;;;;5127491;27;20451;-88
2023/12/30 01:19:22;;;;;;;10.20;1.30;;;6.20;99.90;;;;;;5111355;27;20411;-88
2023/12/30 01:21:48;;;;;;;9.17;0.73;;;6.30;99.90;;;;;;5110969;27;20415;-87
2023/12/30 01:24:14;;;;;;;9.57;1.17;;;6.20;99.90;;;;;;5126693;27;20433;-91
2023/12/30 01:26:39;;;;;;;9.77;0.57;;;6.20;99.90;;;;;;5111053;28;20902;-89
2023/12/30 01:29:05;;;;;;;7.73;0.77;;;6.40;99.90;;;;;;5109395;27;20402;-89
2023/12/30 01:31:31;;;;;;;11.57;1.63;;;6.20;99.90;;;;;;5111406;28;20989;-95
2023/12/30 01:33:56;;;;;;;10.80;1.17;;;6.20;99.90;;;;;;5109342;28;20449;-91
2023/12/30 01:36:22;;;;;;;9.80;1.27;;;6.30;99.90;;;;;;5110950;28;20444;-89
2023/12/30 01:38:48;;;;;;;11.30;1.03;;;6.30;99.90;;;;;;5110621;28;20459;-88
2023/12/30 01:41:13;;;;;;;8.82;0.65;;;6.30;99.90;;;;;;5109986;28;20410;-89
2023/12/30 01:43:39;;;;;;;10.95;1.17;;;6.20;99.90;;;;;;5130000;27;20423;-89
2023/12/30 01:46:08;;;;;;;10.77;0.95;;;6.30;99.90;;;;;;5130087;27;20404;-89
2023/12/30 01:48:35;;;;;;;9.15;0.90;;;6.30;99.90;;;;;;5139399;27;20916;-90
2023/12/30 01:51:02;;;;;;;7.67;0.83;;;6.30;99.90;;;;;;5108903;28;20493;-90
2023/12/30 01:53:31;;;;;;;9.68;1.15;;;6.30;99.90;;;;;;5111243;28;20410;-89
2023/12/30 01:55:58;;;;;;;9.20;1.05;;;6.30;99.90;;;;;;5111216;27;20399;-90
2023/12/30 01:58:23;;;;;;;9.82;0.80;;;6.60;99.90;;;;;;5114479;27;20403;-89
2023/12/30 02:00:51;;;;;;;11.93;1.30;;;6.40;99.90;;;;;;5114918;27;20409;-91
2023/12/30 02:03:17;;;;;;;8.68;0.93;;;6.70;99.90;;;;;;5119549;27;20417;-89
2023/12/30 02:05:45;;;;;;;10.40;1.25;;;6.60;99.90;;;;;;5135734;27;20504;-92
2023/12/30 02:08:12;;;;;;;12.32;0.90;;;6.50;99.90;;;;;;5134212;27;20404;-90
2023/12/30 02:10:37;;;;;;;9.20;1.00;;;6.60;99.90;;;;;;5135594;27;20404;-89
2023/12/30 02:13:03;;;;;;;10.82;1.02;;;6.60;99.90;;;;;;5151542;27;20404;-88
2023/12/30 02:15:29;;;;;;;14.07;1.13;;;6.80;99.90;;;;;;5135318;27;20404;-89
2023/12/30 02:17:56;;;;;;;11.63;0.98;;;6.70;99.90;;;;;;5135208;27;20859;-89
2023/12/30 02:20:23;;;;;;;12.45;1.10;;;6.70;99.90;;;;;;5151548;27;20747;-92
2023/12/30 02:22:49;;;;;;;9.93;1.20;;;7.00;99.90;;;;;;5152547;27;20405;-89
2023/12/30 02:25:15;;;;;;;10.23;1.27;;;7.00;99.90;;;;;;5132925;27;20425;-89
2023/12/30 02:27:45;;;;;;;12.77;1.08;;;6.80;99.90;;;;;;5135209;27;20480;-88
2023/12/30 02:30:11;;;;;;;13.27;0.95;;;6.80;99.90;;;;;;5133907;27;20397;-89
2023/12/30 02:32:37;;;;;;;12.85;1.63;;;6.80;99.90;;;;;;5134791;27;20440;-92
2023/12/30 02:35:03;;;;;;;10.23;0.90;;;6.80;99.90;;;;;;5134310;27;20455;-90
2023/12/30 02:37:29;;;;;;;12.23;1.00;;;6.90;99.90;;;;;;5151402;27;20405;-90
2023/12/30 02:39:54;;;;;;;11.23;1.43;;;6.90;99.90;;;;;;5135214;27;20408;-91
2023/12/30 02:42:20;;;;;;;11.00;1.20;;;6.90;99.90;;;;;;5133261;27;20492;-93
2023/12/30 02:44:46;;;;;;;10.85;0.88;;;6.90;99.90;;;;;;5135035;27;20420;-90
2023/12/30 02:47:12;;;;;;;9.23;1.20;;;7.00;99.90;;;;;;5133356;27;20389;-90
2023/12/30 02:49:42;;;;;;;10.50;1.20;;;6.90;99.90;;;;;;5152299;27;20480;-89
2023/12/30 02:52:08;;;;;;;12.35;1.00;;;6.90;99.90;;;;;;5129461;27;20471;-92
2023/12/30 02:54:35;;;;;;;8.30;1.00;;;7.00;99.90;;;;;;5114858;27;20880;-90
2023/12/30 02:57:02;;;;;;;9.93;1.02;;;6.90;99.90;;;;;;5135062;27;20404;-90
2023/12/30 02:59:28;;;;;;;11.38;1.17;;;7.00;99.90;;;;;;5133013;27;20798;-89
2023/12/30 03:01:54;;;;;;;10.50;0.85;;;7.00;99.90;;;;;;5114815;27;20798;-91
2023/12/30 03:04:20;;;;;;;10.07;1.30;;;7.10;99.90;;;;;;5111844;27;20418;-91
2023/12/30 03:06:45;;;;;;;11.57;1.10;;;7.20;99.90;;;;;;5123742;27;20474;-91
2023/12/30 03:09:11;;;;;;;11.98;1.25;;;7.50;99.90;;;;;;5132524;27;20422;-91
2023/12/30 03:11:37;;;;;;;12.27;1.10;;;7.10;99.90;;;;;;5115107;27;20467;-92
2023/12/30 03:14:03;;;;;;;9.95;1.30;;;7.10;99.90;;;;;;5113472;27;20402;-90
2023/12/30 03:16:29;;;;;;;9.97;0.97;;;7.10;99.90;;;;;;5112262;27;20921;-91
2023/12/30 03:18:55;;;;;;;13.27;1.70;;;7.20;99.90;;;;;;5114090;27;20948;-91
2023/12/30 03:21:21;;;;;;;11.85;0.88;;;7.00;99.90;;;;;;5111789;27;20955;-91
2023/12/30 03:23:47;;;;;;;11.82;1.00;;;7.20;99.90;;;;;;5113634;27;20677;-91
2023/12/30 03:26:13;;;;;;;14.52;1.85;;;7.10;99.90;;;;;;5111741;27;20606;-90
2023/12/30 03:28:38;;;;;;;11.27;1.10;;;7.10;99.90;;;;;;5122821;27;21054;-89
2023/12/30 03:31:06;;;;;;;10.38;1.60;;;7.10;99.90;;;;;;5129055;27;20403;-91
2023/12/30 03:33:32;;;;;;;12.30;1.47;;;7.20;99.90;;;;;;5112301;27;20503;-91
2023/12/30 03:35:58;;;;;;;12.53;1.10;;;7.20;99.90;;;;;;5113485;27;20402;-91
2023/12/30 03:38:24;;;;;;;11.40;1.23;;;7.20;99.90;;;;;;5111188;27;20399;-91
2023/12/30 03:40:50;;;;;;;12.33;1.43;;;7.20;99.90;;;;;;5123991;27;20393;-89
2023/12/30 03:43:16;;;;;;;13.63;1.50;;;6.90;99.90;;;;;;5148677;27;21038;-89
2023/12/30 03:45:42;;;;;;;12.33;1.07;;;7.40;99.90;;;;;;5133218;27;20404;-90
2023/12/30 03:48:07;;;;;;;14.93;1.60;;;7.50;99.90;;;;;;5149836;27;20755;-90
2023/12/30 03:50:33;;;;;;;12.15;1.42;;;7.20;99.90;;;;;;5132862;27;20397;-90
2023/12/30 03:52:59;;;;;;;12.50;1.23;;;7.10;99.90;;;;;;5133589;27;20504;-91
2023/12/30 03:55:24;;;;;;;14.38;1.58;;;7.10;99.90;;;;;;5131592;27;20449;-90
2023/12/30 03:57:50;;;;;;;13.87;2.07;;;7.00;99.90;;;;;;5133587;27;20401;-90
2023/12/30 04:00:16;;;;;;;13.07;1.63;;;7.00;99.90;;;;;;5131781;27;20453;-91
2023/12/30 04:02:42;;;;;;;11.27;1.08;;;7.00;99.90;;;;;;5133673;27;20397;-93
2023/12/30 04:05:08;;;;;;;13.15;1.38;;;7.00;99.90;;;;;;5131369;27;20412;-91
2023/12/30 04:07:33;;;;;;;12.23;1.73;;;6.90;99.90;;;;;;5133373;27;20484;-89
2023/12/30 04:09:59;;;;;;;13.20;1.40;;;7.00;99.90;;;;;;5132792;27;20409;-89
2023/12/30 04:12:25;;;;;;;13.23;1.57;;;6.90;99.90;;;;;;5132162;27;20396;-88
2023/12/30 04:14:51;;;;;;;13.30;1.17;;;7.40;99.90;;;;;;5133169;27;20396;-88
2023/12/30 04:17:16;;;;;;;12.10;1.48;;;7.00;99.90;;;;;;5131065;27;20461;-91
2023/12/30 04:19:43;;;;;;;12.77;1.25;;;7.10;99.90;;;;;;5125768;27;20391;-88
2023/12/30 04:22:08;;;;;;;12.38;1.13;;;7.40;99.90;;;;;;5109718;27;20410;-91
2023/12/30 04:24:34;;;;;;;12.60;1.37;;;7.30;99.90;;;;;;5112713;27;20500;-89
2023/12/30 04:27:00;;;;;;;9.30;0.80;;;7.20;99.90;;;;;;5111226;27;20754;-92
2023/12/30 04:29:28;;;;;;;11.65;1.67;;;7.20;99.90;;;;;;5111659;27;20406;-89
2023/12/30 04:31:54;;;;;;;13.45;1.15;;;7.20;99.90;;;;;;5111970;27;20927;-89
2023/12/30 04:34:20;;;;;;;11.75;1.52;;;7.20;99.90;;;;;;5110277;27;20437;-91
2023/12/30 04:36:46;;;;;;;13.57;1.42;;;7.20;99.90;;;;;;5112577;27;20439;-92
2023/12/30 04:39:11;;;;;;;13.27;1.10;;;7.30;99.90;;;;;;5110156;27;20974;-89
2023/12/30 04:41:37;;;;;;;10.73;1.20;;;7.30;99.90;;;;;;5112129;27;20844;-90
2023/12/30 04:44:03;;;;;;;13.25;1.08;;;7.40;99.90;;;;;;5110143;27;20422;-88
2023/12/30 04:46:29;;;;;;;12.07;1.50;;;7.30;99.90;;;;;;5111803;27;20474;-90
2023/12/30 04:48:54;;;;;;;14.33;1.40;;;7.30;99.90;;;;;;5128459;27;20398;-91
2023/12/30 04:51:21;;;;;;;13.05;1.65;;;7.30;99.90;;;;;;5127436;27;20410;-90
2023/12/30 04:53:47;;;;;;;12.57;1.40;;;7.50;99.90;;;;;;5112000;27;20390;-91
2023/12/30 04:56:16;;;;;;;16.97;1.60;;;7.50;99.90;;;;;;5119698;27;20393;-88
2023/12/30 04:58:42;;;;;;;16.80;1.63;;;7.30;99.90;;;;;;5126805;27;20423;-88
2023/12/30 05:01:08;;;;;;;14.00;1.33;;;7.30;99.90;;;;;;5109655;27;20507;-88
2023/12/30 05:03:35;;;;;;;12.70;1.20;;;7.30;99.90;;;;;;5109737;27;20512;-90
2023/12/30 05:06:02;;;;;;;12.13;1.33;;;7.30;99.90;;;;;;5126515;27;20403;-89
2023/12/30 05:08:28;;;;;;;11.73;1.30;;;7.20;99.90;;;;;;5110091;27;20909;-89
2023/12/30 05:10:54;;;;;;;11.68;1.55;;;7.30;99.90;;;;;;5128525;27;20399;-90
2023/12/30 05:13:20;;;;;;;11.60;1.80;;;7.30;99.90;;;;;;5109750;28;20394;-89
2023/12/30 05:15:46;;;;;;;14.60;1.30;;;7.20;99.90;;;;;;5111178;27;20397;-92
2023/12/30 05:18:12;;;;;;;15.27;1.70;;;7.40;99.90;;;;;;5109352;27;20434;-91
2023/12/30 05:20:38;;;;;;;11.43;1.45;;;7.20;99.90;;;;;;5111182;27;20459;-90
2023/12/30 05:23:03;;;;;;;12.98;1.55;;;7.10;99.90;;;;;;5109115;27;20403;-91
2023/12/30 05:25:32;;;;;;;15.57;1.42;;;7.10;99.90;;;;;;5109469;28;20411;-92
2023/12/30 05:27:58;;;;;;;10.85;1.27;;;7.30;99.90;;;;;;5110700;27;20450;-89
2023/12/30 05:30:24;;;;;;;14.40;1.25;;;7.10;99.90;;;;;;5106808;27;20912;-89
2023/12/30 05:32:49;;;;;;;10.03;0.90;;;7.30;99.90;;;;;;5130563;27;20456;-88
2023/12/30 05:35:15;;;;;;;11.50;1.37;;;7.30;99.90;;;;;;5120672;27;20477;-92
2023/12/30 05:37:41;;;;;;;12.50;1.23;;;7.10;99.90;;;;;;5111536;28;20438;-92
2023/12/30 05:40:08;;;;;;;12.55;1.20;;;7.00;99.90;;;;;;5108802;28;20398;-87
2023/12/30 05:42:34;;;;;;;12.20;1.25;;;7.10;99.90;;;;;;5109878;27;20753;-91
2023/12/30 05:45:00;;;;;;;15.53;1.50;;;7.10;99.90;;;;;;5109972;28;20560;-88
2023/12/30 05:47:26;;;;;;;14.93;1.98;;;7.10;99.90;;;;;;5109043;28;20403;-90
2023/12/30 05:49:52;;;;;;;13.43;1.40;;;7.20;99.90;;;;;;5111046;28;20402;-89
2023/12/30 05:52:18;;;;;;;11.70;1.30;;;7.20;99.90;;;;;;5108650;28;20399;-90
2023/12/30 05:54:46;;;;;;;12.93;1.83;;;7.30;99.90;;;;;;5102511;28;20402;-91
2023/12/30 05:57:12;;;;;;;15.85;1.80;;;7.20;99.90;;;;;;5108482;28;20898;-88
2023/12/30 05:59:39;;;;;;;13.60;1.52;;;7.20;99.90;;;;;;5111120;28;20398;-89
2023/12/30 06:02:05;;;;;;;12.10;1.10;;;7.20;99.90;;;;;;5109818;28;20395;-89
2023/12/30 06:04:31;;;;;;;9.55;1.25;;;7.20;99.90;;;;;;5109932;28;20817;-90
2023/12/30 06:06:56;;;;;;;12.13;1.17;;;7.20;99.90;;;;;;5111225;28;20394;-91
2023/12/30 06:09:22;;;;;;;11.50;1.27;;;7.40;99.90;;;;;;5108332;28;20406;-88
2023/12/30 06:11:48;;;;;;;12.80;1.33;;;7.30;99.90;;;;;;5111621;28;20904;-91
2023/12/30 06:14:15;;;;;;;13.90;1.27;;;7.50;99.90;;;;;;5109035;28;20391;-91
2023/12/30 06:16:41;;;;;;;11.82;1.25;;;7.30;99.90;;;;;;5110614;28;20391;-90
2023/12/30 06:19:06;;;;;;;12.40;1.42;;;7.30;99.90;;;;;;5109612;28;20455;-90
2023/12/30 06:21:32;;;;;;;10.85;1.08;;;7.30;99.90;;;;;;5110125;27;20399;-92
2023/12/30 06:23:58;;;;;;;10.33;1.00;;;7.30;99.90;;;;;;5109711;28;20886;-89
2023/12/30 06:26:24;;;;;;;11.73;1.43;;;7.30;99.90;;;;;;5126555;27;20398;-91
2023/12/30 06:28:50;;;;;;;13.02;1.48;;;7.30;99.90;;;;;;5127880;27;20415;-91
2023/12/30 06:31:15;;;;;;;13.20;1.55;;;7.30;99.90;;;;;;5107964;28;20760;-89
2023/12/30 06:33:41;;;;;;;11.25;1.80;;;7.30;99.90;;;;;;5110751;28;20406;-91
2023/12/30 06:36:07;;;;;;;14.52;1.58;;;7.30;99.90;;;;;;5125699;27;20399;-89
2023/12/30 06:38:33;;;;;;;12.88;1.83;;;7.30;99.90;;;;;;5109743;28;20521;-91
2023/12/30 06:40:58;;;;;;;12.75;1.50;;;7.30;99.90;;;;;;5109488;28;20972;-91
2023/12/30 06:43:24;;;;;;;14.90;1.53;;;7.30;99.90;;;;;;5111025;27;20411;-92
2023/12/30 06:45:50;;;;;;;12.37;1.53;;;7.60;99.90;;;;;;5113815;27;20391;-90
2023/12/30 06:48:18;;;;;;;12.82;1.15;;;7.30;99.90;;;;;;5112151;27;20437;-88
2023/12/30 06:50:45;;;;;;;15.95;1.83;;;7.20;99.90;;;;;;5114099;27;20431;-90
2023/12/30 06:53:11;;;;;;;15.48;1.60;;;7.20;99.90;;;;;;5111994;27;20399;-89
2023/12/30 06:55:37;;;;;;;12.05;1.13;;;7.30;99.90;;;;;;5114434;27;20421;-89
2023/12/30 06:58:03;;;;;;;9.98;1.17;;;7.20;99.90;;;;;;5113269;27;20418;-89
2023/12/30 07:00:30;;;;;;;13.82;1.45;;;7.20;99.90;;;;;;5111902;27;20391;-89
2023/12/30 07:02:56;;;;;;;14.10;1.27;;;7.10;99.90;;;;;;5112693;27;20970;-88
2023/12/30 07:05:22;;;;;;;11.95;1.80;;;7.20;99.90;;;;;;5110981;27;20414;-89
2023/12/30 07:07:48;;;;;;;10.35;1.10;;;7.10;99.90;;;;;;5114048;27;20407;-88
2023/12/30 07:10:13;;;;;;;12.52;1.15;;;7.10;99.90;;;;;;5111934;27;20467;-87
2023/12/30 07:12:39;;;;;;;12.23;1.43;;;7.10;99.90;;;;;;5113726;27;20402;-90
2023/12/30 07:15:09;;;;;;;9.80;1.30;;;7.00;99.90;;;;;;5111643;27;20399;-90
2023/12/30 07:17:34;;;;;;;11.93;1.23;;;7.00;99.90;;;;;;5113468;27;20407;-91
2023/12/30 07:20:00;;;;;;;11.27;1.10;;;7.00;99.90;;;;;;5113199;27;20900;-89
2023/12/30 07:22:25;;;;;;;12.07;1.90;;;6.90;99.90;;;;;;5111918;27;20422;-88
2023/12/30 07:24:51;;;;;;;12.63;1.40;;;6.90;99.90;;;;;;5113777;27;21039;-88
2023/12/30 07:27:17;;;;;;;11.15;1.45;;;7.10;99.90;;;;;;5128940;27;20494;-90
2023/12/30 07:29:42;;;;;;;12.17;1.40;;;6.90;99.90;;;;;;5113070;27;20433;-88
2023/12/30 07:32:08;;;;;;;13.30;1.10;;;6.90;99.90;;;;;;5113461;27;20434;-89
2023/12/30 07:34:34;;;;;;;13.25;1.20;;;6.90;99.90;;;;;;5133292;27;20404;-88
2023/12/30 07:37:01;;;;;;;7.90;0.77;;;6.90;99.90;;;;;;5133275;27;20627;-90
2023/12/30 07:39:28;;;;;;;9.25;0.70;;;7.00;99.90;;;;;;5132969;27;20418;-89
2023/12/30 07:41:53;;;;;;;12.20;1.33;;;7.00;99.90;;;;;;5133195;27;20397;-89
2023/12/30 07:44:19;;;;;;;12.82;1.08;;;7.00;99.90;;;;;;5131885;27;20420;-91
2023/12/30 07:46:45;;;;;;;11.20;0.80;;;7.10;99.90;;;;;;5134209;27;20401;-89
2023/12/30 07:49:11;;;;;;;9.27;0.97;;;7.20;99.90;;;;;;5131454;27;20891;-89
2023/12/30 07:51:45;;;;;;;12.25;1.20;;;7.20;99.90;;;;;;5133415;27;20412;-92
2023/12/30 07:54:17;;;;;;;14.10;1.35;;;7.00;99.90;;;;;;5117127;27;20423;-89
2023/12/30 07:56:42;;;;;;;11.97;1.20;;;7.30;99.90;;;;;;5111828;27;20485;-89
2023/12/30 07:59:10;;;;;;;10.77;1.03;;;7.00;99.90;;;;;;5112052;27;20399;-89
2023/12/30 08:01:41;;;;;;;12.33;1.40;;;7.30;99.90;;;;;;5110582;27;21045;-88
2023/12/30 08:04:07;;;;;;;12.82;1.23;;;7.20;99.90;;;;;;5104194;28;20515;-89
2023/12/30 08:06:32;;;;;;;12.43;1.17;;;7.00;99.90;;;;;;5120372;27;20541;-89
2023/12/30 08:08:58;;;;;;;12.93;1.75;;;7.00;99.90;;;;;;5126524;27;20480;-89
2023/12/30 08:11:24;;;;;;;12.73;1.40;;;7.10;99.90;;;;;;5124506;27;20408;-90
2023/12/30 08:13:49;;;;;;;11.95;1.40;;;7.10;99.90;;;;;;5108567;28;20411;-89
2023/12/30 08:16:15;;;;;;;15.10;1.50;;;7.20;99.90;;;;;;5091339;28;20421;-90
2023/12/30 08:18:40;;;;;;;13.87;1.60;;;7.10;99.90;;;;;;5108230;28;20733;-88
2023/12/30 08:21:06;;;;;;;13.10;1.20;;;7.00;99.90;;;;;;5108870;28;20945;-88
2023/12/30 08:23:32;;;;;;;11.82;1.45;;;7.00;99.90;;;;;;5106783;28;20424;-88
2023/12/30 08:25:57;;;;;;;11.53;1.00;;;7.00;99.90;;;;;;5091670;28;20464;-89
2023/12/30 08:28:23;;;;;;;10.20;1.20;;;7.00;99.90;;;;;;5106829;28;20824;-89
2023/12/30 08:30:50;;;;;;;13.38;1.23;;;6.90;99.90;;;;;;5108654;28;20404;-88
2023/12/30 08:33:15;;;;;;;10.68;1.45;;;6.90;99.90;;;;;;5108044;27;20407;-87
2023/12/30 08:35:41;;;;;;;12.88;1.33;;;6.80;99.90;;;;;;5125181;27;20763;-92
2023/12/30 08:38:07;;;;;;;13.20;1.23;;;6.90;99.90;;;;;;5091705;28;20802;-89
2023/12/30 08:40:32;;;;;;;12.40;1.50;;;6.80;99.90;;;;;;5089805;28;20404;-89
2023/12/30 08:42:58;;;;;;;13.45;1.17;;;6.70;99.90;;;;;;5105528;27;20529;-89
2023/12/30 08:45:24;;;;;;;10.53;0.87;;;6.80;99.90;;;;;;5109848;27;20527;-90
2023/12/30 08:47:50;;;;;;;11.73;1.97;;;6.70;99.90;;;;;;5111461;27;20769;-88
2023/12/30 08:50:15;;;;;;;10.13;1.00;;;6.90;99.90;;;;;;5109892;27;20590;-88
2023/12/30 08:52:41;;;;;;;10.18;0.80;;;6.80;99.90;;;;;;5111399;27;20395;-89
2023/12/30 08:55:12;;;;;;;11.32;1.10;;;6.90;99.90;;;;;;5110872;27;20399;-89
2023/12/30 08:57:37;;;;;;;10.13;1.05;;;6.90;99.90;;;;;;5109817;27;20410;-89
2023/12/30 09:00:08;;;;;;;9.73;1.13;;;6.90;99.90;;;;;;5128572;27;20413;-89
2023/12/30 09:02:35;;;;;;;14.40;1.33;;;6.90;99.90;;;;;;5110957;27;20395;-87
2023/12/30 09:05:02;;;;;;;12.48;1.27;;;6.90;99.90;;;;;;5131584;27;20987;-91
2023/12/30 09:07:29;;;;;;;11.13;0.93;;;7.00;99.90;;;;;;5130044;27;20401;-89
2023/12/30 09:09:54;;;;;;;11.13;1.27;;;7.00;99.90;;;;;;5149183;27;20397;-90
2023/12/30 09:12:20;;;;;;;10.82;1.00;;;7.10;99.90;;;;;;5131219;27;20465;-88
2023/12/30 09:14:45;;;;;;;12.03;1.40;;;7.10;99.90;;;;;;5130947;27;20493;-89
2023/12/30 09:17:11;;;;;;;9.70;1.00;;;7.00;99.90;;;;;;5132020;27;20393;-90
2023/12/30 09:19:37;;;;;;;12.18;1.33;;;7.10;99.90;;;;;;5130087;27;20775;-88
2023/12/30 09:22:02;;;;;;;9.80;1.10;;;7.20;99.90;;;;;;5132054;27;20729;-89
2023/12/30 09:24:28;;;;;;;11.47;1.37;;;7.20;99.90;;;;;;5121364;27;20422;-89
2023/12/30 09:26:55;;;;;;;14.38;1.30;;;7.20;99.90;;;;;;5110603;28;21693;-90
2023/12/30 09:29:21;;;;;;;11.45;1.40;;;7.30;99.90;;;;;;5110058;27;20489;-88
2023/12/30 09:31:47;;;;;;;14.67;1.20;;;7.30;99.90;;;;;;5110120;27;20407;-88
2023/12/30 09:34:12;;;;;;;9.43;1.10;;;7.30;99.90;;;;;;5110785;28;20406;-88
2023/12/30 09:36:38;;;;;;;10.85;1.17;;;7.40;99.90;;;;;;5109356;28;20395;-89
2023/12/30 09:39:05;;;;;;;12.77;1.27;;;7.40;99.90;;;;;;5111103;27;20398;-90
2023/12/30 09:41:31;;;;;;;11.30;1.05;;;7.50;99.90;;;;;;5109409;28;20402;-89
2023/12/30 09:43:59;;;;;;;10.48;1.10;;;7.60;99.90;;;;;;5111148;28;20418;-89
2023/12/30 09:46:26;;;;;;;12.45;1.30;;;7.80;99.90;;;;;;5109199;28;20402;-88
2023/12/30 09:48:55;;;;;;;11.63;1.00;;;7.90;99.90;;;;;;5110585;28;20410;-89
2023/12/30 09:51:21;;;;;;;10.68;0.95;;;8.10;99.90;;;;;;5110270;28;20971;-88
2023/12/30 09:53:47;;;;;;;9.30;1.42;;;8.20;99.90;;;;;;5109464;27;20394;-88
2023/12/30 09:56:13;;;;;;;12.45;1.63;;;8.60;99.90;;;;;;5110798;28;20459;-87
2023/12/30 09:58:40;;;;;;;11.48;0.88;;;8.30;99.90;;;;;;5108974;28;20395;-88
2023/12/30 10:01:05;;;;;;;8.40;1.00;;;8.30;99.90;;;;;;5110388;28;20418;-88
2023/12/30 10:03:32;;;;;;;10.27;0.73;;;8.30;99.90;;;;;;5109229;28;20438;-89
2023/12/30 10:06:00;;;;;;;9.73;1.00;;;8.40;99.90;;;;;;5110476;28;20394;-90
2023/12/30 10:08:27;;;;;;;8.25;1.17;;;8.40;99.90;;;;;;5110114;28;20399;-88
2023/12/30 10:10:54;;;;;;;10.23;1.10;;;8.30;99.90;;;;;;5109071;28;20410;-89
2023/12/30 10:13:26;;;;;;;13.45;1.23;;;8.30;99.90;;;;;;5110036;28;20889;-88
2023/12/30 10:15:57;;;;;;;7.65;0.77;;;8.60;99.90;;;;;;5108544;28;20909;-88
2023/12/30 10:18:23;;;;;;;10.43;1.02;;;8.40;99.90;;;;;;5114138;27;20398;-88
2023/12/30 10:20:49;;;;;;;10.10;1.30;;;8.40;99.90;;;;;;5112633;27;20489;-89
2023/12/30 10:23:15;;;;;;;15.10;1.25;;;8.60;99.90;;;;;;5112787;27;20591;-89
2023/12/30 10:25:41;;;;;;;8.73;1.27;;;8.80;99.90;;;;;;5113884;27;20433;-88
2023/12/30 10:28:07;;;;;;;10.65;0.80;;;8.50;99.90;;;;;;5130374;27;20451;-90
2023/12/30 10:30:32;;;;;;;7.80;0.60;;;8.50;99.90;;;;;;5114193;27;20783;-88
2023/12/30 10:33:28;;;;;;;9.07;1.00;;;8.50;99.90;;;;;;5112034;27;20460;-88
2023/12/30 10:35:54;;;;;;;8.30;1.07;;;8.40;99.90;;;;;;5114160;27;20788;-89
2023/12/30 10:38:23;;;;;;;12.25;1.38;;;8.40;99.90;;;;;;5108911;28;20397;-88
2023/12/30 10:40:50;;;;;;;11.75;1.70;;;8.40;99.90;;;;;;5092603;28;20457;-90
2023/12/30 10:43:19;;;;;;;11.52;1.90;;;8.40;99.90;;;;;;5104276;27;20398;-89
2023/12/30 10:46:01;;;;;;;10.40;1.27;;;8.80;99.90;;;;;;5112205;27;20497;-89
2023/12/30 10:48:33;;;;;;;9.25;0.95;;;8.50;99.90;;;;;;5114082;27;20441;-90
2023/12/30 10:51:03;;;;;;;7.85;1.00;;;8.50;99.90;;;;;;5112602;27;20399;-88
2023/12/30 10:54:09;;;;;;;11.73;1.08;;;8.60;99.90;;;;;;5091860;28;20415;-89
2023/12/30 10:56:41;;;;;;;9.40;1.03;;;8.50;99.90;;;;;;5092495;28;20495;-90
2023/12/30 10:59:07;;;;;;;9.53;1.30;;;8.90;99.90;;;;;;5124526;27;20957;-89
2023/12/30 11:01:36;;;;;;;8.07;1.27;;;8.60;99.90;;;;;;5126184;27;20441;-90
2023/12/30 11:04:03;;;;;;;8.45;1.23;;;9.00;99.90;;;;;;5131955;27;20472;-88
2023/12/30 11:06:36;;;;;;;8.30;1.10;;;8.80;99.90;;;;;;5112874;27;20394;-89
2023/12/30 11:09:09;;;;;;;8.73;0.88;;;8.60;99.90;;;;;;5111197;27;20431;-89
2023/12/30 11:11:39;;;;;;;10.57;1.00;;;8.70;99.90;;;;;;5113332;27;20411;-88
2023/12/30 11:14:11;;;;;;;7.90;0.88;;;8.80;99.90;;;;;;5113342;27;20459;-89
2023/12/30 11:16:37;;;;;;;9.10;0.93;;;8.90;99.90;;;;;;5111861;27;20506;-89
2023/12/30 11:19:04;;;;;;;8.45;1.02;;;9.00;99.90;;;;;;5113550;27;20517;-89
2023/12/30 11:21:46;;;;;;;15.50;1.40;;;8.90;99.90;;;;;;5128623;27;20490;-91
2023/12/30 11:24:13;;;;;;;7.80;1.15;;;9.00;99.90;;;;;;5113265;27;20414;-89
2023/12/30 11:26:43;;;;;;;9.52;1.08;;;9.20;99.90;;;;;;5112246;27;20398;-91
2023/12/30 11:29:14;;;;;;;6.10;0.77;;;8.90;99.90;;;;;;5128708;27;20421;-89
2023/12/30 11:31:42;;;;;;;8.73;0.80;;;8.90;99.90;;;;;;5113606;27;20425;-90
2023/12/30 11:34:09;;;;;;;10.05;1.00;;;9.00;99.90;;;;;;5111460;27;20417;-88
2023/12/30 11:36:35;;;;;;;10.43;1.00;;;8.90;99.90;;;;;;5113151;27;20838;-90
2023/12/30 11:39:01;;;;;;;8.50;1.08;;;9.10;99.90;;;;;;5110447;27;20441;-88
2023/12/30 11:41:29;;;;;;;9.27;0.70;;;8.80;99.90;;;;;;5112791;27;20470;-89
2023/12/30 11:43:58;;;;;;;7.10;0.82;;;9.00;99.90;;;;;;5111358;27;20462;-89
2023/12/30 11:46:26;;;;;;;10.18;0.98;;;8.70;99.90;;;;;;5111789;27;20402;-89
2023/12/30 11:48:52;;;;;;;10.15;1.08;;;8.60;99.90;;;;;;5117428;27;20402;-89
2023/12/30 11:51:23;;;;;;;8.27;0.80;;;8.80;99.90;;;;;;5131962;27;20973;-88
2023/12/30 11:53:48;;;;;;;7.90;0.68;;;8.60;99.90;;;;;;5132481;27;20405;-89
2023/12/30 11:56:15;;;;;;;9.65;1.25;;;8.60;99.90;;;;;;5131780;27;20420;-90
2023/12/30 11:58:42;;;;;;;7.68;0.93;;;8.40;99.90;;;;;;5132965;27;20472;-89
2023/12/30 12:01:08;;;;;;;8.63;0.70;;;8.40;99.90;;;;;;5132262;27;20401;-89
2023/12/30 12:03:34;;;;;;;9.60;1.10;;;8.30;99.90;;;;;;5132399;27;20404;-88
2023/12/30 12:05:59;;;;;;;9.30;1.00;;;8.30;99.90;;;;;;5132796;27;20393;-87
2023/12/30 12:08:25;;;;;;;9.13;1.10;;;8.30;99.90;;;;;;5130713;27;20480;-88
2023/12/30 12:10:51;;;;;;;8.43;1.00;;;8.60;99.90;;;;;;5132599;27;20503;-89
2023/12/30 12:13:24;;;;;;;7.80;0.87;;;8.40;99.90;;;;;;5123843;27;20442;-88
2023/12/30 12:15:50;;;;;;;9.30;1.30;;;8.50;99.90;;;;;;5129332;27;20481;-88
2023/12/30 12:18:17;;;;;;;9.47;1.20;;;8.40;99.90;;;;;;5110638;27;20402;-88
2023/12/30 12:20:43;;;;;;;9.93;1.33;;;8.50;99.90;;;;;;5112108;27;20849;-89
2023/12/30 12:23:09;;;;;;;9.85;1.20;;;8.50;99.90;;;;;;5110588;27;20403;-88
2023/12/30 12:25:35;;;;;;;9.82;1.20;;;8.60;99.90;;;;;;5110631;27;20952;-88
2023/12/30 12:28:17;;;;;;;10.07;1.07;;;8.60;99.90;;;;;;5111832;27;20463;-89
2023/12/30 12:30:44;;;;;;;8.40;0.90;;;8.60;99.90;;;;;;5126736;27;20430;-88
2023/12/30 12:33:13;;;;;;;10.93;0.82;;;8.70;99.90;;;;;;5111475;27;20387;-89
2023/12/30 12:35:39;;;;;;;9.40;1.10;;;8.80;99.90;;;;;;5110859;27;20394;-88
2023/12/30 12:38:05;;;;;;;8.65;1.27;;;8.70;99.90;;;;;;5110771;27;20517;-90
2023/12/30 12:40:32;;;;;;;9.80;1.20;;;8.70;99.90;;;;;;5110531;27;20403;-88
2023/12/30 12:42:58;;;;;;;8.87;0.70;;;9.00;99.90;;;;;;5127377;27;20405;-89
2023/12/30 12:45:24;;;;;;;10.10;0.90;;;8.70;99.90;;;;;;5111387;27;20422;-87
2023/12/30 12:47:49;;;;;;;8.65;0.80;;;8.90;99.90;;;;;;5110063;27;20422;-89